Monticello, Maine
46° 20' 20"N, 67° 53' 10"W, Elevation 575 ft.
Eastern Time

Hourly observations for the last 48 hours

Date

Time

Temperature (F) Humi-
dity
(%)
Wind
(mph)
Pressure Rain (in) Sun
(W/m2)
UV ET
(in)
Air Dew 6 Hour 1 Hr 3 Hr 6 Hr Day
Alt
(in)
Sea
Level
(mb)
Max Min
22 05:00 6.3 2.8 85 W 2 G 5 30.00 1016.1 0.00 0 0.0 0.000
22 04:00 8.3 5.2 87 WNW 1 G 6 29.98 1015.4 0.00 0 0.0 0.000
22 03:00 8.8 4.4 82 NNW 1 G 4 29.94 1013.8 0.00 0 0.0 0.000
22 02:00 12.1 7.7 82 N 0 G 6 29.90 1012.7 0.00 0 0.0 0.000
22 01:00 14.8 9.8 26.9 14.8 80 NNW 6 G 11 29.86 1011.3 0.00 0 0.0 0.000
22 00:00 16.5 11.1 79 N 4 G 17 29.82 1010.0 0.00 0 0.0 0.008
21 23:00 19.7 13.1 75 NNW 7 G 17 29.77 1008.3 0.00 0 0.0 0.007
21 22:00 23.0 18.3 82 N 12 G 20 29.74 1007.2 0.00 0 0.0 0.006
21 21:00 25.3 22.0 87 N 7 G 14 29.69 1005.3 0.00 0 0.0 0.006
21 20:00 26.7 23.1 86 NNW 4 G 11 29.65 1004.0 0.00 0 0.0 0.006
21 19:00 26.6 23.8 26.6 19.9 89 WNW 5 G 21 29.60 1002.5 0.00 0 0.0 0.006
21 18:00 22.4 19.9 90 N 0 G 4 29.58 1001.8 0.00 0 0.0 0.006
21 17:00 22.5 20.0 90 ESE 0 G 1 29.56 1000.9 0.00 0 0.0 0.006
21 16:00 22.4 19.4 88 SSE 0 G 1 29.56 1001.1 0.00 30 0.0 0.006
21 15:00 21.9 18.6 87 SE 2 G 5 29.57 1001.5 0.00 40 0.0 0.005
21 14:00 20.2 17.0 87 SE 1 G 6 29.59 1002.2 0.00 40 0.0 0.004
21 13:00 19.9 16.4 19.9 9.0 86 SSE 2 G 6 29.61 1002.7 0.00 53 0.0 0.003
21 12:00 19.2 15.7 86 SSE 2 G 7 29.66 1004.4 0.00 44 0.0 0.002
21 11:00 18.3 14.8 86 SE 5 G 12 29.69 1005.5 0.00 58 0.0 0.001
21 10:00 15.9 12.2 85 SE 4 G 9 29.76 1007.7 0.00 39 0.0 0.000
21 09:00 14.6 10.9 85 SE 3 G 7 29.81 1009.4 0.00 56 0.0 0.000
21 08:00 11.4 8.0 86 E 1 G 5 29.86 1011.3 0.00 21 0.0 0.000
21 07:00 9.0 5.4 9.0 6.5 85 ESE 1 G 5 29.92 1013.2 0.00 9 0.0 0.000
21 06:00 7.7 3.6 83 S 0 G 2 29.93 1013.7 0.00 0 0.0 0.000
21 05:00 7.2 2.6 81 S 0 G 2 29.96 1014.7 0.00 0 0.0 0.000
21 04:00 7.6 1.3 75 S 0 G 2 29.99 1015.5 0.00 0 0.0 0.000
21 03:00 7.7 -0.4 69 Calm 30.02 1016.5 0.00 0 0.0 0.000
21 02:00 6.9 -0.2 72 Calm 30.07 1018.2 0.00 0 0.0 0.000
21 01:00 6.5 -0.3 6.5 2.8 73 S 0 G 2 30.10 1019.4 0.00 0 0.0 0.000
21 00:00 5.2 -0.7 76 S 0 G 1 30.16 1021.5 0.00 0 0.0 0.041
20 23:00 3.2 -3.8 72 Calm 30.18 1022.2 0.00 0 0.0 0.041
20 22:00 3.0 -4.9 69 Calm 30.20 1022.8 0.00 0 0.0 0.041
20 21:00 4.8 -3.1 69 Calm 30.21 1023.0 0.00 0 0.0 0.041
20 20:00 4.7 -2.6 71 WNW 1 G 3 30.24 1024.1 0.00 0 0.0 0.041
20 19:00 5.0 -3.9 22.1 5.0 66 Calm 30.27 1025.2 0.00 0 0.0 0.041
20 18:00 8.4 -3.4 58 WSW 0 G 3 30.27 1025.0 0.00 0 0.0 0.041
20 17:00 15.6 -0.2 49 Calm 30.26 1024.8 0.00 7 0.0 0.040
20 16:00 21.1 -0.6 38 SW 2 G 9 30.26 1024.9 0.00 47 0.0 0.037
20 15:00 22.1 -0.8 36 NW 4 G 11 30.29 1025.8 0.00 287 0.9 0.032
20 14:00 21.6 -1.9 35 W 4 G 13 30.29 1025.8 0.00 436 1.9 0.026
20 13:00 20.0 -2.1 20.0 0.9 37 WSW 5 G 14 30.30 1026.2 0.00 550 2.9 0.019
20 12:00 17.2 -2.5 41 NNW 4 G 13 30.33 1027.0 0.00 603 3.3 0.013
20 11:00 14.0 -3.5 45 N 4 G 14 30.36 1028.2 0.00 608 3.1 0.008
20 10:00 11.1 -5.2 47 NW 7 G 17 30.36 1028.2 0.00 550 2.3 0.004
20 09:00 8.8 -4.5 54 W 6 G 17 30.38 1029.0 0.00 441 1.3 0.001
20 08:00 4.8 -5.7 61 NNW 4 G 13 30.36 1028.2 0.00 281 0.0 0.000
20 07:00 0.9 -7.5 1.7 -1.2 67 W 5 G 13 30.37 1028.4 0.00 21 0.0 0.000
20 06:00 1.3 -7.1 67 WNW 5 G 10 30.37 1028.6 0.00 0 0.0 0.000
20 05:00 -1.2 -8.9 69 NW 3 G 11 30.35 1028.0 0.00 0 0.0 0.000
20 04:00 1.3 -6.8 68 NW 1 G 10 30.33 1027.1 0.00 0 0.0 0.000
20 03:00 0.1 -7.4 70 W 4 G 10 30.33 1027.0 0.00 0 0.0 0.000
20 02:00 0.7 -6.5 71 W 3 G 10 30.33 1027.1 0.00 0 0.0 0.000
20 01:00 2.4 -6.1 14.4 0.5 67 W 4 G 8 30.31 1026.3 0.00 0 0.0 0.000
20 00:00 3.2 -5.9 65 W 6 G 11 30.31 1026.3 0.00 0 0.0 0.000
19 23:00 3.5 -6.3 63 NW 4 G 5 30.29 1025.7 0.00 0 0.0 0.000
19 22:00 3.9 -6.2 62 W 5 G 8 30.28 1025.3 0.00 0 0.0 0.000
19 21:00 4.1 -6.4 61 WNW 4 G 6 30.26 1024.6 0.00 0 0.0 0.000
19 20:00 6.1 -5.5 58 WNW 2 G 4 30.26 1024.7 0.00 0 0.0 0.000
19 19:00 7.4 -5.4 14.9 6.1 55 WSW 7 G 12 30.25 1024.5 0.00 0 0.0 0.000
19 18:00 9.7 -5.7 49 WNW 7 G 13 30.23 1023.8 0.00 5 0.0 0.000
19 17:00 12.4 -4.0 47 W 9 G 19 30.21 1023.0 0.00 26 0.0 0.000
19 16:00 14.6 -3.4 44 NNW 5 G 7 30.20 1022.8 0.00 276 0.7 0.000
19 15:00 14.3 -3.7 44 NNE 7 G 11 30.20 1022.8 0.00 364 1.4 0.000
19 14:00 14.0 -2.5 47 WSW 6 G 10 30.22 1023.2 0.00 540 2.3 0.000
19 13:00 11.1 -2.3 14.4 -1.6 54 NNW 8 G 14 30.23 1023.8 0.00 599 2.9 0.000
19 12:00 9.3 -3.2 56 W 6 G 13 30.24 1024.0 0.00 605 2.9 0.000
19 11:00 7.0 -4.3 59 W 9 G 12 30.25 1024.3 0.00 568 2.2 0.000
19 10:00 4.7 -5.5 62 WSW 9 G 12 30.22 1023.5 0.00 440 1.3 0.000
19 09:00 0.9 -8.1 65 W 7 G 11 30.20 1022.7 0.00 287 0.0 0.000
19 08:00 -1.6 -9.6 68 W 2 G 9 30.17 1021.8 0.00 21 0.0 0.000
19 07:00 -1.0 -9.3 14.4 -1.8 67 W 5 G 13 30.14 1020.7 0.00 0 0.0 0.000
19 06:00 -1.0 -9.0 68 WNW 6 G 13 30.09 1019.1 0.00 0 0.0 0.000

Data generated by WxSolution Version 1.9.1.7, Build 2018.11.24.